createdAt,value
2022-08-27T00:01:47.092Z,18.94
2022-08-27T00:04:09.141Z,18.90
2022-08-27T00:06:31.808Z,18.88
2022-08-27T00:08:54.435Z,18.85
2022-08-27T00:11:19.526Z,18.84
2022-08-27T00:13:41.876Z,18.83
2022-08-27T00:16:08.208Z,18.80
2022-08-27T00:18:30.486Z,18.80
2022-08-27T00:20:52.377Z,18.75
2022-08-27T00:23:14.342Z,18.72
2022-08-27T00:25:36.264Z,18.70
2022-08-27T00:27:58.117Z,18.67
2022-08-27T00:30:23.317Z,18.68
2022-08-27T00:32:45.491Z,18.71
2022-08-27T00:35:08.664Z,18.69
2022-08-27T00:37:30.546Z,18.68
2022-08-27T00:39:53.687Z,18.63
2022-08-27T00:42:16.061Z,18.60
2022-08-27T00:44:38.934Z,18.57
2022-08-27T00:47:07.617Z,18.56
2022-08-27T00:49:40.441Z,18.54
2022-08-27T00:52:24.206Z,18.52
2022-08-27T00:54:47.142Z,18.49
2022-08-27T00:57:09.356Z,18.49
2022-08-27T00:59:32.937Z,18.48
2022-08-27T01:02:14.532Z,18.45
2022-08-27T01:04:40.021Z,18.42
2022-08-27T01:07:03.939Z,18.40
2022-08-27T01:09:27.139Z,18.37
2022-08-27T01:11:49.908Z,18.34
2022-08-27T01:14:12.256Z,18.33
2022-08-27T01:16:40.236Z,18.32
2022-08-27T01:19:08.271Z,18.29
2022-08-27T01:21:41.461Z,18.27
2022-08-27T01:24:59.175Z,18.22
2022-08-27T01:27:27.174Z,18.15
2022-08-27T01:29:49.360Z,18.13
2022-08-27T01:32:21.569Z,18.11
2022-08-27T01:34:44.190Z,18.05
2022-08-27T01:37:07.079Z,18.01
2022-08-27T01:39:30.441Z,17.98
2022-08-27T01:41:52.841Z,17.95
2022-08-27T01:44:16.306Z,17.92
2022-08-27T01:46:40.711Z,17.88
2022-08-27T01:49:02.618Z,17.86
2022-08-27T01:51:24.636Z,17.81
2022-08-27T01:53:47.578Z,17.76
2022-08-27T01:56:09.710Z,17.71
2022-08-27T01:58:33.547Z,17.68
2022-08-27T02:01:00.762Z,17.62
2022-08-27T02:03:22.860Z,17.60
2022-08-27T02:05:47.842Z,17.58
2022-08-27T02:08:09.892Z,17.53
2022-08-27T02:10:37.526Z,17.47
2022-08-27T02:13:00.414Z,17.41
2022-08-27T02:15:24.244Z,17.32
2022-08-27T02:17:47.883Z,17.25
2022-08-27T02:20:11.046Z,17.20
2022-08-27T02:22:33.093Z,17.15
2022-08-27T02:24:55.062Z,17.11
2022-08-27T02:27:17.173Z,17.08
2022-08-27T02:29:39.213Z,17.06
2022-08-27T02:32:02.057Z,17.06
2022-08-27T02:34:23.891Z,17.05
2022-08-27T02:36:46.716Z,17.02
2022-08-27T02:39:08.792Z,16.96
2022-08-27T02:41:31.703Z,16.93
2022-08-27T02:43:53.560Z,16.95
2022-08-27T02:46:15.718Z,16.96
2022-08-27T02:48:40.039Z,16.98
2022-08-27T02:51:02.129Z,17.00
2022-08-27T02:53:24.067Z,17.03
2022-08-27T02:55:46.985Z,17.04
2022-08-27T02:58:09.787Z,17.03
2022-08-27T03:00:33.608Z,17.03
2022-08-27T03:02:57.670Z,17.06
2022-08-27T03:05:20.714Z,17.07
2022-08-27T03:07:42.926Z,17.09
2022-08-27T03:10:06.880Z,17.09
2022-08-27T03:12:28.715Z,17.08
2022-08-27T03:14:51.020Z,17.10
2022-08-27T03:17:31.334Z,17.09
2022-08-27T03:19:53.413Z,17.07
2022-08-27T03:22:15.264Z,17.05
2022-08-27T03:24:37.103Z,17.01
2022-08-27T03:27:02.326Z,16.98
2022-08-27T03:29:24.186Z,16.96
2022-08-27T03:31:46.463Z,16.98
2022-08-27T03:34:09.636Z,16.97
2022-08-27T03:36:31.776Z,16.97
2022-08-27T03:38:54.101Z,17.00
2022-08-27T03:41:16.319Z,17.00
2022-08-27T03:43:38.355Z,16.98
2022-08-27T03:46:01.334Z,16.96
2022-08-27T03:48:24.041Z,16.94
2022-08-27T03:50:49.177Z,16.93
2022-08-27T03:53:11.605Z,16.94
2022-08-27T03:55:33.721Z,16.95
2022-08-27T03:57:55.766Z,16.93
2022-08-27T04:00:17.877Z,16.93
2022-08-27T04:02:42.421Z,16.89
2022-08-27T04:05:05.926Z,16.87
2022-08-27T04:07:28.176Z,16.88
2022-08-27T04:09:50.228Z,16.87
2022-08-27T04:12:12.176Z,16.87
2022-08-27T04:14:34.716Z,16.87
2022-08-27T04:16:57.546Z,16.86
2022-08-27T04:19:20.535Z,16.87
2022-08-27T04:21:44.044Z,16.87
2022-08-27T04:24:06.327Z,16.86
2022-08-27T04:26:29.717Z,16.86
2022-08-27T04:28:51.593Z,16.85
2022-08-27T04:31:16.890Z,16.85
2022-08-27T04:33:38.928Z,16.87
2022-08-27T04:36:07.179Z,16.87
2022-08-27T04:38:29.096Z,16.86
2022-08-27T04:41:09.516Z,16.84
2022-08-27T04:43:31.557Z,16.81
2022-08-27T04:45:53.425Z,16.79
2022-08-27T04:48:18.830Z,16.78
2022-08-27T04:50:47.288Z,16.78
2022-08-27T04:53:11.776Z,16.75
2022-08-27T04:55:33.560Z,16.75
2022-08-27T04:57:55.502Z,16.73
2022-08-27T05:00:17.496Z,16.72
2022-08-27T05:02:39.310Z,16.69
2022-08-27T05:05:01.160Z,16.71
2022-08-27T05:07:23.048Z,16.74
2022-08-27T05:09:44.916Z,16.75
2022-08-27T05:12:08.092Z,16.73
2022-08-27T05:14:30.038Z,16.72
2022-08-27T05:16:52.080Z,16.69
2022-08-27T05:19:15.023Z,16.66
2022-08-27T05:21:40.251Z,16.67
2022-08-27T05:24:06.612Z,16.67
2022-08-27T05:26:30.200Z,16.67
2022-08-27T05:28:52.256Z,16.66
2022-08-27T05:31:17.038Z,16.66
2022-08-27T05:33:40.512Z,16.67
2022-08-27T05:36:02.906Z,16.69
2022-08-27T05:38:29.073Z,16.74
2022-08-27T05:40:51.439Z,16.78
2022-08-27T05:43:14.419Z,16.83
2022-08-27T05:45:49.689Z,16.88
2022-08-27T05:48:17.041Z,16.91
2022-08-27T05:50:44.659Z,16.93
2022-08-27T05:53:07.776Z,16.94
2022-08-27T05:55:29.659Z,16.99
2022-08-27T05:57:51.703Z,17.05
2022-08-27T06:00:32.580Z,17.08
2022-08-27T06:02:54.471Z,17.13
2022-08-27T06:05:16.898Z,17.19
2022-08-27T06:07:38.904Z,17.25
2022-08-27T06:10:01.011Z,17.29
2022-08-27T06:12:27.998Z,17.34
2022-08-27T06:14:50.174Z,17.41
2022-08-27T06:17:11.986Z,17.47
2022-08-27T06:19:34.865Z,17.56
2022-08-27T06:22:00.816Z,17.62
2022-08-27T06:24:32.065Z,17.68
2022-08-27T06:26:54.164Z,17.73
2022-08-27T06:29:17.026Z,17.79
2022-08-27T06:31:40.645Z,17.83
2022-08-27T06:34:07.715Z,17.89
2022-08-27T06:36:31.042Z,17.96
2022-08-27T06:38:54.442Z,18.01
2022-08-27T06:41:23.680Z,18.05
2022-08-27T06:43:46.941Z,18.10
2022-08-27T06:46:15.139Z,18.19
2022-08-27T06:48:38.290Z,18.28
2022-08-27T06:51:01.019Z,18.33
2022-08-27T06:53:24.552Z,18.36
2022-08-27T06:55:49.537Z,18.40
2022-08-27T06:58:11.961Z,18.48
2022-08-27T07:00:34.044Z,18.56
2022-08-27T07:02:56.277Z,18.61
2022-08-27T07:05:19.060Z,18.66
2022-08-27T07:07:46.744Z,18.68
2022-08-27T07:10:11.119Z,18.72
2022-08-27T07:12:33.323Z,18.78
2022-08-27T07:14:55.253Z,18.84
2022-08-27T07:17:18.673Z,18.92
2022-08-27T07:19:41.467Z,18.99
2022-08-27T07:22:03.319Z,19.09
2022-08-27T07:24:25.407Z,19.21
2022-08-27T07:26:47.372Z,19.42
2022-08-27T07:29:15.081Z,19.62
2022-08-27T07:31:38.867Z,19.75
2022-08-27T07:34:00.924Z,19.85
2022-08-27T07:36:24.251Z,19.98
2022-08-27T07:38:52.730Z,20.03
2022-08-27T07:41:19.809Z,20.10
2022-08-27T07:44:00.636Z,20.24
2022-08-27T07:46:24.229Z,20.44
2022-08-27T07:48:46.157Z,20.65
2022-08-27T07:51:17.287Z,20.81
2022-08-27T07:53:39.103Z,20.89
2022-08-27T07:56:06.894Z,20.90
2022-08-27T07:58:29.064Z,20.89
2022-08-27T08:00:51.077Z,20.91
2022-08-27T08:03:13.376Z,20.98
2022-08-27T08:05:35.351Z,21.00
2022-08-27T08:07:57.244Z,21.05
2022-08-27T08:10:22.380Z,21.15
2022-08-27T08:12:44.394Z,21.20
2022-08-27T08:15:11.957Z,21.37
2022-08-27T08:17:35.825Z,21.47
2022-08-27T08:20:18.440Z,21.54
2022-08-27T08:22:40.156Z,21.66
2022-08-27T08:25:02.219Z,21.67
2022-08-27T08:27:24.730Z,21.62
2022-08-27T08:29:48.304Z,21.51
2022-08-27T08:32:10.136Z,21.42
2022-08-27T08:34:32.297Z,21.36
2022-08-27T08:36:55.233Z,21.29
2022-08-27T08:39:19.738Z,21.29
2022-08-27T08:41:52.520Z,21.37
2022-08-27T08:44:46.241Z,21.47
2022-08-27T08:47:16.837Z,21.68
2022-08-27T08:50:29.456Z,21.82
2022-08-27T08:53:09.682Z,22.00
2022-08-27T08:55:45.829Z,22.03
2022-08-27T08:58:30.380Z,22.02
2022-08-27T09:01:01.239Z,22.11
2022-08-27T09:03:23.819Z,22.21
2022-08-27T09:05:59.291Z,22.20
2022-08-27T09:08:36.751Z,22.17
2022-08-27T09:11:26.051Z,22.12
2022-08-27T09:13:59.888Z,22.09
2022-08-27T09:16:21.899Z,22.01
2022-08-27T09:18:45.839Z,21.97
2022-08-27T09:21:35.376Z,21.95
2022-08-27T09:24:03.192Z,21.90
2022-08-27T09:26:29.381Z,21.80
2022-08-27T09:29:18.941Z,21.75
2022-08-27T09:31:41.008Z,21.71
2022-08-27T09:34:05.509Z,21.68
2022-08-27T09:36:27.259Z,21.68
2022-08-27T09:39:04.189Z,21.72
2022-08-27T09:41:36.080Z,21.77
2022-08-27T09:44:00.471Z,21.82
2022-08-27T09:46:26.963Z,21.84
2022-08-27T09:48:49.332Z,21.89
2022-08-27T09:51:29.008Z,21.97
2022-08-27T09:53:57.151Z,22.14
2022-08-27T09:56:34.936Z,22.39
2022-08-27T09:59:12.869Z,22.58
2022-08-27T10:02:01.010Z,22.86
2022-08-27T10:04:50.290Z,23.06
2022-08-27T10:07:30.884Z,23.06
2022-08-27T10:10:01.736Z,23.17
2022-08-27T10:12:59.049Z,23.37
2022-08-27T10:15:24.521Z,23.37
2022-08-27T10:18:17.677Z,23.49
2022-08-27T10:20:54.654Z,23.57
2022-08-27T10:23:45.782Z,23.61
2022-08-27T10:26:16.473Z,23.67
2022-08-27T10:29:08.240Z,23.72
2022-08-27T10:32:16.606Z,23.62
2022-08-27T10:34:52.744Z,23.85
2022-08-27T10:37:52.734Z,24.01
2022-08-27T10:40:32.982Z,24.07
2022-08-27T10:43:52.334Z,23.91
2022-08-27T10:46:50.669Z,23.69
2022-08-27T10:50:12.517Z,23.52
2022-08-27T10:53:32.936Z,23.40
2022-08-27T10:56:14.026Z,23.61
2022-08-27T10:59:33.461Z,23.90
2022-08-27T11:02:28.248Z,24.21
2022-08-27T11:04:57.580Z,23.99
2022-08-27T11:07:38.357Z,24.00
2022-08-27T11:10:08.113Z,24.14
2022-08-27T11:12:37.449Z,24.33
2022-08-27T11:15:19.425Z,24.64
2022-08-27T11:17:53.525Z,24.94
2022-08-27T11:20:42.502Z,24.72
2022-08-27T11:23:17.536Z,24.44
2022-08-27T11:25:55.706Z,24.23
2022-08-27T11:28:30.416Z,24.06
2022-08-27T11:31:17.587Z,23.97
2022-08-27T11:34:03.373Z,23.79
2022-08-27T11:36:47.672Z,23.68
2022-08-27T11:39:21.899Z,23.68
2022-08-27T11:42:20.699Z,23.74
2022-08-27T11:44:46.982Z,23.83
2022-08-27T11:47:20.552Z,23.84
2022-08-27T11:50:19.876Z,23.85
2022-08-27T11:53:01.145Z,23.79
2022-08-27T11:55:29.102Z,23.68
2022-08-27T11:58:22.990Z,23.54
2022-08-27T12:00:46.860Z,23.50
2022-08-27T12:03:35.453Z,23.56
2022-08-27T12:05:58.012Z,23.60
2022-08-27T12:08:24.124Z,23.59
2022-08-27T12:11:23.356Z,23.53
2022-08-27T12:14:04.497Z,23.53
2022-08-27T12:17:00.329Z,23.51
2022-08-27T12:19:36.481Z,23.46
2022-08-27T12:22:59.096Z,23.45
2022-08-27T12:25:23.067Z,23.41
2022-08-27T12:28:03.375Z,23.46
2022-08-27T12:30:39.305Z,23.54
2022-08-27T12:33:35.405Z,23.61
2022-08-27T12:36:09.371Z,23.67
2022-08-27T12:38:46.290Z,23.76
2022-08-27T12:41:14.184Z,23.79
2022-08-27T12:43:43.486Z,23.80
2022-08-27T12:46:13.956Z,23.86
2022-08-27T12:48:47.053Z,23.94
2022-08-27T12:51:24.552Z,24.01
2022-08-27T12:54:19.338Z,23.99
2022-08-27T12:57:23.363Z,24.07
2022-08-27T13:00:14.090Z,24.21
2022-08-27T13:03:11.290Z,24.26
2022-08-27T13:05:41.143Z,24.14
2022-08-27T13:08:03.534Z,24.10
2022-08-27T13:10:31.525Z,24.09
2022-08-27T13:13:11.404Z,24.07
2022-08-27T13:15:35.169Z,24.05
2022-08-27T13:17:57.283Z,24.06
2022-08-27T13:20:26.298Z,24.05
2022-08-27T13:22:49.405Z,24.07
2022-08-27T13:25:31.501Z,24.13
2022-08-27T13:28:08.163Z,24.09
2022-08-27T13:30:36.299Z,24.06
2022-08-27T13:33:00.453Z,24.03
2022-08-27T13:35:23.820Z,23.97
2022-08-27T13:37:53.402Z,23.93
2022-08-27T13:40:36.639Z,23.90
2022-08-27T13:43:08.738Z,23.93
2022-08-27T13:45:31.560Z,23.92
2022-08-27T13:47:54.571Z,23.92
2022-08-27T13:50:30.338Z,23.88
2022-08-27T13:53:20.469Z,23.81
2022-08-27T13:55:49.461Z,23.81
2022-08-27T13:58:30.442Z,23.85
2022-08-27T14:00:53.576Z,23.87
2022-08-27T14:03:35.043Z,23.89
2022-08-27T14:05:57.357Z,23.87
2022-08-27T14:08:20.176Z,23.95
2022-08-27T14:10:57.895Z,23.95
2022-08-27T14:13:25.221Z,23.96
2022-08-27T14:15:51.803Z,23.91
2022-08-27T14:18:57.242Z,23.86
2022-08-27T14:21:14.868Z,23.86
2022-08-27T14:23:36.794Z,23.97
2022-08-27T14:26:01.495Z,24.02
2022-08-27T14:28:23.541Z,24.04
2022-08-27T14:30:45.561Z,24.02
2022-08-27T14:33:07.725Z,23.97
2022-08-27T14:35:35.667Z,23.93
2022-08-27T14:38:01.255Z,23.91
2022-08-27T14:40:23.385Z,23.92
2022-08-27T14:42:45.332Z,23.89
2022-08-27T14:45:08.926Z,23.86
2022-08-27T14:47:33.801Z,23.81
2022-08-27T14:49:55.839Z,23.77
2022-08-27T14:52:17.662Z,23.76
2022-08-27T14:54:41.322Z,23.75
2022-08-27T14:57:05.727Z,23.72
2022-08-27T14:59:27.683Z,23.65
2022-08-27T15:01:50.510Z,23.59
2022-08-27T15:04:12.676Z,23.57
2022-08-27T15:06:34.604Z,23.53
2022-08-27T15:08:56.655Z,23.49
2022-08-27T15:11:26.717Z,23.44
2022-08-27T15:13:49.010Z,23.40
2022-08-27T15:16:27.282Z,23.36
2022-08-27T15:18:53.593Z,23.33
2022-08-27T15:21:23.049Z,23.33
2022-08-27T15:23:49.622Z,23.33
2022-08-27T15:26:11.493Z,23.32
2022-08-27T15:28:37.143Z,23.32
2022-08-27T15:30:59.089Z,23.36
2022-08-27T15:33:21.221Z,23.34
2022-08-27T15:35:43.280Z,23.31
2022-08-27T15:38:05.276Z,23.30
2022-08-27T15:40:32.070Z,23.24
2022-08-27T15:43:00.478Z,23.23
2022-08-27T15:45:25.728Z,23.25
2022-08-27T15:47:49.528Z,23.21
2022-08-27T15:50:11.693Z,23.18
2022-08-27T15:52:40.209Z,23.12
2022-08-27T15:55:04.770Z,23.10
2022-08-27T15:57:26.608Z,23.07
2022-08-27T15:59:49.731Z,23.05
2022-08-27T16:02:23.739Z,23.05
2022-08-27T16:04:49.209Z,23.04
2022-08-27T16:07:11.844Z,23.03
2022-08-27T16:09:33.799Z,23.05
2022-08-27T16:11:55.801Z,23.05
2022-08-27T16:14:17.680Z,23.03
2022-08-27T16:16:42.888Z,23.02
2022-08-27T16:19:06.564Z,22.99
2022-08-27T16:21:29.156Z,22.94
2022-08-27T16:23:51.323Z,22.90
2022-08-27T16:26:13.453Z,22.86
2022-08-27T16:28:35.390Z,22.83
2022-08-27T16:30:58.512Z,22.82
2022-08-27T16:33:22.120Z,22.82
2022-08-27T16:35:44.151Z,22.82
2022-08-27T16:38:06.499Z,22.83
2022-08-27T16:40:28.953Z,22.80
2022-08-27T16:42:52.236Z,22.79
2022-08-27T16:45:17.383Z,22.78
2022-08-27T16:47:59.473Z,22.77
2022-08-27T16:50:36.457Z,22.73
2022-08-27T16:52:58.539Z,22.69
2022-08-27T16:55:20.337Z,22.64
2022-08-27T16:57:42.320Z,22.61
2022-08-27T17:00:06.001Z,22.59
2022-08-27T17:02:34.865Z,22.55
2022-08-27T17:05:12.289Z,22.53
2022-08-27T17:07:39.156Z,22.48
2022-08-27T17:10:05.634Z,22.46
2022-08-27T17:12:27.964Z,22.46
2022-08-27T17:14:51.242Z,22.46
2022-08-27T17:17:13.194Z,22.44
2022-08-27T17:19:37.129Z,22.42
2022-08-27T17:22:01.686Z,22.41
2022-08-27T17:24:23.460Z,22.39
2022-08-27T17:26:45.308Z,22.35
2022-08-27T17:29:07.415Z,22.30
2022-08-27T17:31:41.576Z,22.26
2022-08-27T17:34:07.005Z,22.23
2022-08-27T17:36:31.640Z,22.21
2022-08-27T17:38:56.027Z,22.18
2022-08-27T17:41:34.484Z,22.15
2022-08-27T17:44:01.869Z,22.10
2022-08-27T17:46:26.389Z,22.06
2022-08-27T17:48:48.306Z,22.03
2022-08-27T17:51:12.670Z,22.00
2022-08-27T17:53:34.556Z,21.98
2022-08-27T17:55:56.394Z,21.96
2022-08-27T17:58:19.782Z,21.96
2022-08-27T18:00:44.963Z,21.94
2022-08-27T18:03:18.009Z,21.92
2022-08-27T18:05:39.975Z,21.88
2022-08-27T18:08:01.962Z,21.87
2022-08-27T18:10:26.222Z,21.87
2022-08-27T18:12:48.775Z,21.87
2022-08-27T18:15:19.244Z,21.87
2022-08-27T18:17:43.280Z,21.83
2022-08-27T18:20:08.125Z,21.81
2022-08-27T18:22:32.379Z,21.79
2022-08-27T18:25:02.453Z,21.77
2022-08-27T18:27:35.140Z,21.76
2022-08-27T18:29:57.993Z,21.75
2022-08-27T18:32:19.839Z,21.73
2022-08-27T18:34:41.628Z,21.71
2022-08-27T18:37:03.641Z,21.70
2022-08-27T18:39:25.650Z,21.68
2022-08-27T18:41:48.297Z,21.66
2022-08-27T18:44:16.948Z,21.64
2022-08-27T18:46:40.024Z,21.63
2022-08-27T18:49:01.988Z,21.64
2022-08-27T18:51:24.022Z,21.64
2022-08-27T18:53:47.690Z,21.65
2022-08-27T18:56:12.476Z,21.63
2022-08-27T18:58:40.124Z,21.62
2022-08-27T19:01:03.481Z,21.60
2022-08-27T19:03:34.836Z,21.58
2022-08-27T19:05:57.475Z,21.55
2022-08-27T19:08:24.019Z,21.51
2022-08-27T19:10:46.026Z,21.49
2022-08-27T19:13:07.955Z,21.47
2022-08-27T19:15:29.948Z,21.45
2022-08-27T19:17:57.656Z,21.44
2022-08-27T19:20:20.098Z,21.41
2022-08-27T19:22:41.896Z,21.34
2022-08-27T19:25:07.255Z,21.28
2022-08-27T19:27:30.815Z,21.19
2022-08-27T19:29:54.110Z,21.12
2022-08-27T19:32:16.883Z,21.11
2022-08-27T19:34:38.943Z,21.04
2022-08-27T19:37:02.808Z,21.00
2022-08-27T19:39:25.141Z,20.92
2022-08-27T19:41:47.066Z,20.87
2022-08-27T19:44:09.187Z,20.82
2022-08-27T19:46:32.827Z,20.80
2022-08-27T19:48:55.546Z,20.76
2022-08-27T19:51:17.804Z,20.73
2022-08-27T19:53:39.870Z,20.71
2022-08-27T19:56:03.446Z,20.70
2022-08-27T19:58:25.411Z,20.69
2022-08-27T20:00:48.170Z,20.66
2022-08-27T20:03:11.122Z,20.62
2022-08-27T20:05:33.416Z,20.59
2022-08-27T20:07:55.461Z,20.57
2022-08-27T20:10:31.667Z,20.54
2022-08-27T20:12:58.919Z,20.51
2022-08-27T20:15:23.493Z,20.46
2022-08-27T20:17:49.971Z,20.42
2022-08-27T20:20:17.737Z,20.40
2022-08-27T20:22:44.779Z,20.36
2022-08-27T20:25:07.850Z,20.29
2022-08-27T20:27:30.084Z,20.26
2022-08-27T20:29:57.195Z,20.24
2022-08-27T20:32:24.025Z,20.21
2022-08-27T20:34:49.851Z,20.16
2022-08-27T20:37:12.151Z,20.13
2022-08-27T20:39:34.299Z,20.13
2022-08-27T20:41:56.142Z,20.13
2022-08-27T20:44:18.045Z,20.13
2022-08-27T20:46:40.067Z,20.09
2022-08-27T20:49:02.050Z,20.08
2022-08-27T20:51:25.729Z,20.03
2022-08-27T20:53:47.771Z,19.99
2022-08-27T20:56:09.635Z,19.92
2022-08-27T20:58:50.385Z,19.88
2022-08-27T21:01:12.844Z,19.89
2022-08-27T21:05:56.926Z,19.80
2022-08-27T21:08:21.735Z,19.77
2022-08-27T21:10:51.404Z,19.71
2022-08-27T21:13:14.939Z,19.67
2022-08-27T21:15:36.803Z,19.59
2022-08-27T21:17:58.732Z,19.51
2022-08-27T21:20:20.790Z,19.44
2022-08-27T21:22:43.927Z,19.39
2022-08-27T21:25:07.063Z,19.34
2022-08-27T21:27:29.025Z,19.33
2022-08-27T21:29:51.016Z,19.31
2022-08-27T21:32:14.758Z,19.26
2022-08-27T21:34:37.073Z,19.21
2022-08-27T21:36:59.389Z,19.15
2022-08-27T21:39:21.393Z,19.13
2022-08-27T21:41:43.395Z,19.08
2022-08-27T21:44:05.638Z,19.02
2022-08-27T21:46:28.403Z,18.98
2022-08-27T21:48:58.690Z,18.93
2022-08-27T21:51:24.655Z,18.86
2022-08-27T21:53:46.675Z,18.81
2022-08-27T21:56:09.255Z,18.74
2022-08-27T21:58:31.413Z,18.67
2022-08-27T22:00:53.493Z,18.65
2022-08-27T22:03:19.304Z,18.59
2022-08-27T22:05:44.451Z,18.53
2022-08-27T22:08:06.927Z,18.47
2022-08-27T22:10:29.804Z,18.43
2022-08-27T22:12:53.059Z,18.35
2022-08-27T22:15:21.135Z,18.26
2022-08-27T22:17:48.291Z,18.18
2022-08-27T22:20:13.284Z,18.12
2022-08-27T22:22:35.418Z,18.07
2022-08-27T22:24:57.363Z,18.02
2022-08-27T22:27:20.107Z,17.98
2022-08-27T22:29:41.913Z,17.92
2022-08-27T22:32:07.504Z,17.87
2022-08-27T22:34:29.707Z,17.83
2022-08-27T22:36:51.854Z,17.80
2022-08-27T22:39:13.773Z,17.74
2022-08-27T22:41:35.700Z,17.73
2022-08-27T22:43:57.942Z,17.67
2022-08-27T22:46:20.055Z,17.64
2022-08-27T22:48:43.533Z,17.64
2022-08-27T22:51:06.279Z,17.64
2022-08-27T22:53:31.207Z,17.62
2022-08-27T22:55:53.123Z,17.60
2022-08-27T22:58:15.223Z,17.58
2022-08-27T23:00:40.304Z,17.57
2022-08-27T23:03:05.482Z,17.54
2022-08-27T23:05:29.252Z,17.52
2022-08-27T23:08:07.720Z,17.49
2022-08-27T23:10:29.911Z,17.44
2022-08-27T23:12:53.774Z,17.44
2022-08-27T23:15:18.558Z,17.38
2022-08-27T23:17:40.843Z,17.32
2022-08-27T23:20:06.486Z,17.29
2022-08-27T23:22:28.812Z,17.28
2022-08-27T23:25:09.202Z,17.27
2022-08-27T23:27:31.433Z,17.21
2022-08-27T23:29:53.309Z,17.19
2022-08-27T23:32:15.387Z,17.16
2022-08-27T23:34:37.345Z,17.13
2022-08-27T23:36:59.153Z,17.09
2022-08-27T23:39:20.986Z,17.05
2022-08-27T23:41:44.063Z,17.01
2022-08-27T23:44:06.117Z,16.97
2022-08-27T23:46:28.634Z,16.93
2022-08-27T23:48:50.446Z,16.89
2022-08-27T23:51:12.443Z,16.85
2022-08-27T23:53:35.094Z,16.83
2022-08-27T23:55:57.008Z,16.80
2022-08-27T23:58:19.363Z,16.77
